Wetterdaten: Freitag, 05.09.2014
Datum Zeit Temperatur Luftfeuchte Luftdruck Regen Wind Richtung Richtung Taupunkt Windchill Windben
05.09.2014 00:00 11,4 C 92 % 1018,1 hPa 0,0 l/m 0,0 km/h (0 Bft) NO 45 10,1 C 11,7 C 0,0 km/h (0 Bft)
05.09.2014 00:05 11,6 C 92 % 1018,1 hPa 0,0 l/m 0,0 km/h (0 Bft) S 180 10,3 C 11,5 C 0,0 km/h (0 Bft)
05.09.2014 00:10 11,7 C 92 % 1018,1 hPa 0,0 l/m 0,0 km/h (0 Bft) SO 135 10,4 C 11,4 C 0,0 km/h (0 Bft)
05.09.2014 00:15 12,0 C 92 % 1018,2 hPa 0,0 l/m 0,3 km/h (0 Bft) S 180 10,7 C 11,6 C 2,1 km/h (1 Bft)
05.09.2014 00:20 12,1 C 92 % 1018,2 hPa 0,0 l/m 0,3 km/h (0 Bft) S-SO 157 10,8 C 11,7 C 0,0 km/h (0 Bft)
05.09.2014 00:25 11,9 C 92 % 1018,2 hPa 0,0 l/m 0,0 km/h (0 Bft) S 180 10,6 C 11,7 C 0,0 km/h (0 Bft)
05.09.2014 00:30 11,9 C 92 % 1018,2 hPa 0,0 l/m 0,0 km/h (0 Bft) SO 135 10,6 C 11,6 C 1,6 km/h (1 Bft)
05.09.2014 00:35 11,9 C 92 % 1018,2 hPa 0,0 l/m 0,2 km/h (0 Bft) S-SO 157 10,6 C 11,6 C 0,0 km/h (0 Bft)
05.09.2014 00:40 11,9 C 92 % 1018,2 hPa 0,0 l/m 0,5 km/h (0 Bft) S-SO 157 10,6 C 11,6 C 2,3 km/h (1 Bft)
05.09.2014 00:45 12,0 C 92 % 1018,2 hPa 0,0 l/m 0,8 km/h (0 Bft) SO 135 10,7 C 11,7 C 3,4 km/h (1 Bft)
05.09.2014 00:50 11,9 C 92 % 1018,2 hPa 0,0 l/m 0,6 km/h (0 Bft) SW 225 10,6 C 11,7 C 0,0 km/h (0 Bft)
05.09.2014 00:55 11,2 C 92 % 1018,0 hPa 0,0 l/m 0,0 km/h (0 Bft) SO 135 9,9 C 11,3 C 0,0 km/h (0 Bft)
05.09.2014 01:00 11,4 C 92 % 1018,0 hPa 0,0 l/m 0,0 km/h (0 Bft) S-SO 157 10,1 C 11,1 C 0,0 km/h (0 Bft)
05.09.2014 01:05 11,3 C 92 % 1018,0 hPa 0,0 l/m 0,0 km/h (0 Bft) S 180 10,0 C 10,9 C 1,6 km/h (1 Bft)
05.09.2014 01:10 11,4 C 92 % 1018,0 hPa 0,0 l/m 0,0 km/h (0 Bft) S 180 10,1 C 11,0 C 0,0 km/h (0 Bft)
05.09.2014 01:15 11,4 C 92 % 1017,9 hPa 0,0 l/m 0,0 km/h (0 Bft) S-SO 157 10,1 C 11,1 C 0,0 km/h (0 Bft)
05.09.2014 01:20 11,5 C 92 % 1017,9 hPa 0,0 l/m 0,2 km/h (0 Bft) S 180 10,2 C 11,1 C 2,4 km/h (1 Bft)
05.09.2014 01:25 11,3 C 92 % 1017,9 hPa 0,0 l/m 0,8 km/h (0 Bft) S-SO 157 10,0 C 11,1 C 3,5 km/h (1 Bft)
05.09.2014 01:30 11,1 C 92 % 1017,9 hPa 0,0 l/m 1,0 km/h (0 Bft) SO 135 9,8 C 11,0 C 0,0 km/h (0 Bft)
05.09.2014 01:35 10,7 C 92 % 1017,7 hPa 0,0 l/m 0,2 km/h (0 Bft) S 180 9,5 C 10,7 C 0,0 km/h (0 Bft)
05.09.2014 01:40 10,9 C 92 % 1017,7 hPa 0,0 l/m 0,0 km/h (0 Bft) S 180 9,7 C 10,6 C 0,0 km/h (0 Bft)
05.09.2014 01:45 10,9 C 93 % 1017,7 hPa 0,0 l/m 0,3 km/h (0 Bft) S 180 9,8 C 10,6 C 0,0 km/h (0 Bft)
05.09.2014 01:50 11,0 C 92 % 1017,7 hPa 0,0 l/m 0,6 km/h (0 Bft) W-SW 247 9,8 C 10,7 C 0,0 km/h (0 Bft)
05.09.2014 01:55 10,7 C 93 % 1017,8 hPa 0,0 l/m 0,3 km/h (0 Bft) S-SO 157 9,6 C 10,7 C 0,0 km/h (0 Bft)
05.09.2014 02:00 10,6 C 93 % 1017,8 hPa 0,0 l/m 0,0 km/h (0 Bft) S-SO 157 9,5 C 10,6 C 0,0 km/h (0 Bft)
05.09.2014 02:05 10,5 C 93 % 1017,8 hPa 0,0 l/m 0,0 km/h (0 Bft) SO 135 9,4 C 10,5 C 0,0 km/h (0 Bft)
05.09.2014 02:10 10,4 C 93 % 1017,8 hPa 0,0 l/m 0,0 km/h (0 Bft) SO 135 9,3 C 10,4 C 0,0 km/h (0 Bft)
05.09.2014 02:15 10,5 C 93 % 1017,9 hPa 0,0 l/m 0,0 km/h (0 Bft) SO 135 9,4 C 10,3 C 0,0 km/h (0 Bft)
05.09.2014 02:20 10,4 C 93 % 1017,9 hPa 0,0 l/m 0,0 km/h (0 Bft) SO 135 9,3 C 10,3 C 0,0 km/h (0 Bft)
05.09.2014 02:25 10,1 C 92 % 1017,9 hPa 0,0 l/m 0,0 km/h (0 Bft) SO 135 8,9 C 10,1 C 0,0 km/h (0 Bft)
05.09.2014 02:30 10,1 C 93 % 1017,9 hPa 0,0 l/m 0,0 km/h (0 Bft) SO 135 9,0 C 10,1 C 0,0 km/h (0 Bft)
05.09.2014 02:35 10,3 C 93 % 1017,8 hPa 0,0 l/m 0,0 km/h (0 Bft) SO 135 9,2 C 10,1 C 0,0 km/h (0 Bft)
05.09.2014 02:40 10,0 C 93 % 1017,8 hPa 0,0 l/m 0,0 km/h (0 Bft) SO 135 8,9 C 10,2 C 0,0 km/h (0 Bft)
05.09.2014 02:45 9,9 C 93 % 1017,8 hPa 0,0 l/m 0,0 km/h (0 Bft) SO 135 8,8 C 10,1 C 0,0 km/h (0 Bft)
05.09.2014 02:50 9,9 C 93 % 1017,8 hPa 0,0 l/m 0,0 km/h (0 Bft) SO 135 8,8 C 9,9 C 0,0 km/h (0 Bft)
05.09.2014 02:55 10,0 C 93 % 1017,9 hPa 0,0 l/m 0,0 km/h (0 Bft) SO 135 8,9 C 10,0 C 0,0 km/h (0 Bft)
05.09.2014 03:00 10,0 C 93 % 1017,9 hPa 0,0 l/m 0,0 km/h (0 Bft) SO 135 8,9 C 9,9 C 0,0 km/h (0 Bft)
05.09.2014 03:05 9,9 C 93 % 1017,9 hPa 0,0 l/m 0,0 km/h (0 Bft) SO 135 8,8 C 9,9 C 0,0 km/h (0 Bft)
05.09.2014 03:10 9,8 C 93 % 1017,9 hPa 0,0 l/m 0,0 km/h (0 Bft) SO 135 8,7 C 9,8 C 0,0 km/h (0 Bft)
05.09.2014 03:15 9,7 C 93 % 1017,6 hPa 0,0 l/m 0,0 km/h (0 Bft) SO 135 8,6 C 9,8 C 0,0 km/h (0 Bft)
05.09.2014 03:20 9,7 C 93 % 1017,6 hPa 0,0 l/m 0,0 km/h (0 Bft) SO 135 8,6 C 9,7 C 0,0 km/h (0 Bft)
05.09.2014 03:25 9,7 C 93 % 1017,6 hPa 0,0 l/m 0,0 km/h (0 Bft) SO 135 8,6 C 9,7 C 0,0 km/h (0 Bft)
05.09.2014 03:30 9,7 C 93 % 1017,6 hPa 0,0 l/m 0,0 km/h (0 Bft) SO 135 8,6 C 9,6 C 0,0 km/h (0 Bft)
05.09.2014 03:35 9,8 C 93 % 1017,8 hPa 0,0 l/m 0,0 km/h (0 Bft) SO 135 8,7 C 9,5 C 0,0 km/h (0 Bft)
05.09.2014 03:40 9,6 C 93 % 1017,8 hPa 0,0 l/m 0,0 km/h (0 Bft) S-SO 157 8,5 C 9,6 C 0,0 km/h (0 Bft)
05.09.2014 03:45 10,1 C 93 % 1017,8 hPa 0,0 l/m 0,0 km/h (0 Bft) S 180 9,0 C 9,6 C 5,0 km/h (1 Bft)
05.09.2014 03:50 11,2 C 93 % 1017,8 hPa 0,0 l/m 1,1 km/h (1 Bft) W-SW 247 10,1 C 10,0 C 4,8 km/h (1 Bft)
05.09.2014 03:55 11,3 C 93 % 1017,5 hPa 0,0 l/m 2,9 km/h (1 Bft) W 270 10,2 C 10,8 C 5,5 km/h (1 Bft)
05.09.2014 04:00 11,2 C 93 % 1017,5 hPa 0,0 l/m 3,1 km/h (1 Bft) W-SW 247 10,1 C 11,0 C 1,8 km/h (1 Bft)
05.09.2014 04:05 10,8 C 94 % 1017,5 hPa 0,0 l/m 1,3 km/h (1 Bft) W 270 9,9 C 10,9 C 0,0 km/h (0 Bft)
05.09.2014 04:10 10,4 C 94 % 1017,5 hPa 0,0 l/m 0,3 km/h (0 Bft) N 360 9,5 C 10,7 C 0,0 km/h (0 Bft)
05.09.2014 04:15 9,9 C 94 % 1017,5 hPa 0,0 l/m 0,0 km/h (0 Bft) N-NO 22 9,0 C 10,2 C 0,0 km/h (0 Bft)
05.09.2014 04:20 9,7 C 94 % 1017,5 hPa 0,0 l/m 0,0 km/h (0 Bft) O-SO 112 8,8 C 9,9 C 0,0 km/h (0 Bft)
05.09.2014 04:25 9,7 C 94 % 1017,5 hPa 0,0 l/m 0,0 km/h (0 Bft) O 90 8,8 C 9,7 C 0,0 km/h (0 Bft)
05.09.2014 04:30 9,6 C 94 % 1017,5 hPa 0,0 l/m 0,0 km/h (0 Bft) O-SO 112 8,7 C 9,7 C 0,0 km/h (0 Bft)
05.09.2014 04:35 9,6 C 94 % 1017,6 hPa 0,0 l/m 0,0 km/h (0 Bft) SO 135 8,7 C 9,6 C 0,0 km/h (0 Bft)
05.09.2014 04:38 9,5 C 94 % 1017,6 hPa 0,0 l/m 0,0 km/h (0 Bft) SO 135 8,6 C 9,5 C 0,0 km/h (0 Bft)
05.09.2014 04:40 9,5 C 94 % 1017,6 hPa 0,0 l/m 0,0 km/h (0 Bft) SO 135 8,6 C 9,5 C 0,0 km/h (0 Bft)
05.09.2014 04:45 9,5 C 93 % 1017,6 hPa 0,0 l/m 0,0 km/h (0 Bft) O-SO 112 8,4 C 9,4 C 0,0 km/h (0 Bft)
05.09.2014 04:50 9,6 C 94 % 1017,6 hPa 0,0 l/m 0,0 km/h (0 Bft) O-SO 112 8,7 C 9,4 C 0,0 km/h (0 Bft)
05.09.2014 04:55 9,7 C 94 % 1017,4 hPa 0,0 l/m 0,0 km/h (0 Bft) O-SO 112 8,8 C 9,6 C 0,0 km/h (0 Bft)
05.09.2014 05:00 9,6 C 94 % 1017,4 hPa 0,0 l/m 0,0 km/h (0 Bft) O-SO 112 8,7 C 9,7 C 0,0 km/h (0 Bft)
05.09.2014 05:05 9,7 C 94 % 1017,4 hPa 0,0 l/m 0,0 km/h (0 Bft) SO 135 8,8 C 9,7 C 0,0 km/h (0 Bft)
05.09.2014 05:10 9,6 C 94 % 1017,4 hPa 0,0 l/m 0,0 km/h (0 Bft) O-NO 67 8,7 C 9,7 C 0,0 km/h (0 Bft)
05.09.2014 05:15 9,6 C 94 % 1017,3 hPa 0,0 l/m 0,0 km/h (0 Bft) SO 135 8,7 C 9,5 C 0,0 km/h (0 Bft)
05.09.2014 05:20 9,6 C 94 % 1017,3 hPa 0,0 l/m 0,0 km/h (0 Bft) O-SO 112 8,7 C 9,5 C 0,0 km/h (0 Bft)
05.09.2014 05:25 9,8 C 94 % 1017,3 hPa 0,0 l/m 0,0 km/h (0 Bft) O-NO 67 8,9 C 9,7 C 0,0 km/h (0 Bft)
05.09.2014 05:30 9,8 C 94 % 1017,3 hPa 0,0 l/m 0,0 km/h (0 Bft) SO 135 8,9 C 9,7 C 0,0 km/h (0 Bft)
05.09.2014 05:35 9,8 C 94 % 1017,2 hPa 0,0 l/m 0,0 km/h (0 Bft) SO 135 8,9 C 9,9 C 0,0 km/h (0 Bft)
05.09.2014 05:40 9,8 C 94 % 1017,2 hPa 0,0 l/m 0,0 km/h (0 Bft) O-SO 112 8,9 C 9,9 C 0,0 km/h (0 Bft)
05.09.2014 05:45 9,9 C 94 % 1017,2 hPa 0,0 l/m 0,0 km/h (0 Bft) SO 135 9,0 C 9,9 C 0,0 km/h (0 Bft)
05.09.2014 05:50 9,9 C 94 % 1017,2 hPa 0,0 l/m 0,0 km/h (0 Bft) O-SO 112 9,0 C 9,9 C 0,0 km/h (0 Bft)
05.09.2014 05:55 9,9 C 94 % 1017,2 hPa 0,0 l/m 0,0 km/h (0 Bft) SO 135 9,0 C 9,9 C 0,0 km/h (0 Bft)
05.09.2014 06:00 10,2 C 94 % 1017,2 hPa 0,0 l/m 0,0 km/h (0 Bft) O-SO 112 9,3 C 10,1 C 0,0 km/h (0 Bft)
05.09.2014 06:05 10,2 C 94 % 1017,2 hPa 0,0 l/m 0,0 km/h (0 Bft) O-NO 67 9,3 C 10,2 C 0,0 km/h (0 Bft)
05.09.2014 06:10 10,5 C 94 % 1017,2 hPa 0,0 l/m 0,0 km/h (0 Bft) S-SO 157 9,6 C 10,1 C 0,0 km/h (0 Bft)
05.09.2014 06:15 10,9 C 94 % 1017,4 hPa 0,0 l/m 0,2 km/h (0 Bft) SO 135 10,0 C 10,5 C 0,0 km/h (0 Bft)
05.09.2014 06:20 10,6 C 94 % 1017,4 hPa 0,0 l/m 0,2 km/h (0 Bft) N-NO 22 9,7 C 10,6 C 0,0 km/h (0 Bft)
05.09.2014 06:25 10,3 C 94 % 1017,4 hPa 0,0 l/m 0,0 km/h (0 Bft) N-NW 337 9,4 C 10,4 C 0,0 km/h (0 Bft)
05.09.2014 06:30 10,4 C 94 % 1017,4 hPa 0,0 l/m 0,0 km/h (0 Bft) NW 315 9,5 C 10,3 C 0,0 km/h (0 Bft)
05.09.2014 06:35 10,5 C 95 % 1017,4 hPa 0,0 l/m 0,0 km/h (0 Bft) S 180 9,7 C 10,3 C 0,0 km/h (0 Bft)
05.09.2014 06:40 10,6 C 95 % 1017,4 hPa 0,0 l/m 0,0 km/h (0 Bft) S 180 9,8 C 10,3 C 0,0 km/h (0 Bft)
05.09.2014 06:45 10,5 C 95 % 1017,4 hPa 0,0 l/m 0,0 km/h (0 Bft) SW 225 9,7 C 10,4 C 0,0 km/h (0 Bft)
05.09.2014 06:50 10,5 C 95 % 1017,4 hPa 0,0 l/m 0,0 km/h (0 Bft) SW 225 9,7 C 10,4 C 0,0 km/h (0 Bft)
05.09.2014 06:55 10,5 C 95 % 1017,4 hPa 0,0 l/m 0,0 km/h (0 Bft) S-SO 157 9,7 C 10,3 C 0,0 km/h (0 Bft)
05.09.2014 07:00 10,5 C 95 % 1017,4 hPa 0,0 l/m 0,0 km/h (0 Bft) SW 225 9,7 C 10,4 C 0,0 km/h (0 Bft)
05.09.2014 07:05 10,6 C 95 % 1017,4 hPa 0,0 l/m 0,0 km/h (0 Bft) S 180 9,8 C 10,4 C 0,0 km/h (0 Bft)
05.09.2014 07:10 10,6 C 95 % 1017,4 hPa 0,0 l/m 0,0 km/h (0 Bft) W-SW 247 9,8 C 10,5 C 0,0 km/h (0 Bft)
05.09.2014 07:15 10,7 C 95 % 1017,5 hPa 0,0 l/m 0,0 km/h (0 Bft) W-SW 247 9,9 C 10,6 C 0,0 km/h (0 Bft)
05.09.2014 07:20 10,8 C 95 % 1017,5 hPa 0,0 l/m 0,0 km/h (0 Bft) S 180 10,0 C 10,7 C 0,0 km/h (0 Bft)
05.09.2014 07:25 10,9 C 95 % 1017,5 hPa 0,0 l/m 0,0 km/h (0 Bft) S-SO 157 10,1 C 10,8 C 0,0 km/h (0 Bft)
05.09.2014 07:30 10,9 C 95 % 1017,5 hPa 0,0 l/m 0,0 km/h (0 Bft) O 90 10,1 C 10,9 C 0,0 km/h (0 Bft)
05.09.2014 07:35 11,3 C 95 % 1017,6 hPa 0,0 l/m 0,0 km/h (0 Bft) SO 135 10,5 C 11,1 C 0,0 km/h (0 Bft)
05.09.2014 07:40 11,3 C 95 % 1017,6 hPa 0,0 l/m 0,0 km/h (0 Bft) O 90 10,5 C 11,2 C 0,0 km/h (0 Bft)
05.09.2014 07:45 11,4 C 95 % 1017,6 hPa 0,0 l/m 0,0 km/h (0 Bft) SO 135 10,6 C 11,4 C 0,0 km/h (0 Bft)
05.09.2014 07:50 11,6 C 95 % 1017,6 hPa 0,0 l/m 0,0 km/h (0 Bft) O-NO 67 10,8 C 11,5 C 0,0 km/h (0 Bft)
05.09.2014 07:55 11,8 C 95 % 1017,8 hPa 0,0 l/m 0,0 km/h (0 Bft) NO 45 11,0 C 11,7 C 0,0 km/h (0 Bft)
05.09.2014 08:00 11,9 C 95 % 1017,8 hPa 0,0 l/m 0,0 km/h (0 Bft) O-NO 67 11,1 C 11,9 C 0,0 km/h (0 Bft)
05.09.2014 08:05 12,1 C 95 % 1017,8 hPa 0,0 l/m 0,0 km/h (0 Bft) NO 45 11,3 C 12,1 C 0,0 km/h (0 Bft)
05.09.2014 08:10 12,1 C 95 % 1017,8 hPa 0,0 l/m 0,0 km/h (0 Bft) NO 45 11,3 C 12,1 C 0,0 km/h (0 Bft)
05.09.2014 08:15 12,3 C 95 % 1017,6 hPa 0,0 l/m 0,0 km/h (0 Bft) O-NO 67 11,5 C 12,4 C 0,0 km/h (0 Bft)
05.09.2014 08:20 12,5 C 95 % 1017,6 hPa 0,0 l/m 0,0 km/h (0 Bft) SO 135 11,7 C 12,6 C 0,0 km/h (0 Bft)
05.09.2014 08:25 12,8 C 95 % 1017,6 hPa 0,0 l/m 0,0 km/h (0 Bft) SO 135 12,0 C 13,0 C 0,0 km/h (0 Bft)
05.09.2014 08:30 12,9 C 95 % 1017,6 hPa 0,0 l/m 0,0 km/h (0 Bft) N-NO 22 12,1 C 13,1 C 0,0 km/h (0 Bft)
05.09.2014 08:35 13,5 C 94 % 1017,8 hPa 0,0 l/m 0,0 km/h (0 Bft) O-NO 67 12,6 C 13,4 C 0,0 km/h (0 Bft)
05.09.2014 08:40 13,6 C 94 % 1017,8 hPa 0,0 l/m 0,0 km/h (0 Bft) O-NO 67 12,7 C 13,7 C 0,0 km/h (0 Bft)
05.09.2014 08:45 14,0 C 93 % 1017,8 hPa 0,0 l/m 0,0 km/h (0 Bft) SW 225 12,9 C 14,3 C 0,0 km/h (0 Bft)
05.09.2014 08:50 14,1 C 93 % 1017,8 hPa 0,0 l/m 0,0 km/h (0 Bft) W-SW 247 13,0 C 14,5 C 0,0 km/h (0 Bft)
05.09.2014 08:55 14,3 C 93 % 1017,8 hPa 0,0 l/m 0,0 km/h (0 Bft) SW 225 13,2 C 14,8 C 0,0 km/h (0 Bft)
05.09.2014 09:00 14,5 C 93 % 1017,8 hPa 0,0 l/m 0,0 km/h (0 Bft) W 270 13,4 C 15,0 C 0,0 km/h (0 Bft)
05.09.2014 09:05 15,0 C 93 % 1017,8 hPa 0,0 l/m 0,5 km/h (0 Bft) W-SW 247 13,9 C 15,2 C 3,5 km/h (1 Bft)
05.09.2014 09:10 14,9 C 93 % 1017,8 hPa 0,0 l/m 1,0 km/h (0 Bft) W 270 13,8 C 15,3 C 2,7 km/h (1 Bft)
05.09.2014 09:15 15,0 C 93 % 1017,9 hPa 0,0 l/m 1,9 km/h (1 Bft) W 270 13,9 C 15,5 C 0,0 km/h (0 Bft)
05.09.2014 09:20 15,7 C 93 % 1017,9 hPa 0,0 l/m 1,4 km/h (1 Bft) NW 315 14,6 C 15,9 C 0,0 km/h (0 Bft)
05.09.2014 09:25 18,5 C 90 % 1017,9 hPa 0,0 l/m 0,6 km/h (0 Bft) N-NW 337 16,8 C 18,2 C 3,9 km/h (1 Bft)
05.09.2014 09:30 19,0 C 87 % 1017,9 hPa 0,0 l/m 1,1 km/h (1 Bft) NW 315 16,8 C 19,9 C 3,1 km/h (1 Bft)
05.09.2014 09:33 19,3 C 84 % 1018,3 hPa 0,0 l/m 2,1 km/h (1 Bft) NW 315 16,5 C 21,8 C 5,8 km/h (2 Bft)
05.09.2014 09:35 19,3 C 84 % 1018,3 hPa 0,0 l/m 2,1 km/h (1 Bft) NW 315 16,5 C 21,8 C 0,0 km/h (0 Bft)
05.09.2014 09:40 18,9 C 84 % 1018,3 hPa 0,0 l/m 2,1 km/h (1 Bft) NW 315 16,1 C 21,8 C 2,4 km/h (1 Bft)
05.09.2014 09:45 21,2 C 80 % 1018,3 hPa 0,0 l/m 2,3 km/h (1 Bft) NW 315 17,6 C 22,3 C 2,7 km/h (1 Bft)
05.09.2014 09:50 21,3 C 76 % 1018,3 hPa 0,0 l/m 2,6 km/h (1 Bft) W-NW 292 16,9 C 23,1 C 3,7 km/h (1 Bft)
05.09.2014 09:55 21,4 C 77 % 1018,6 hPa 0,0 l/m 3,4 km/h (1 Bft) NW 315 17,2 C 23,2 C 6,6 km/h (2 Bft)
05.09.2014 10:00 21,9 C 77 % 1018,6 hPa 0,0 l/m 2,7 km/h (1 Bft) NW 315 17,7 C 23,5 C 0,0 km/h (0 Bft)
05.09.2014 10:05 21,1 C 78 % 1018,6 hPa 0,0 l/m 1,3 km/h (1 Bft) N-NW 337 17,1 C 23,5 C 1,6 km/h (1 Bft)
05.09.2014 10:10 21,6 C 79 % 1018,6 hPa 0,0 l/m 0,6 km/h (0 Bft) NW 315 17,8 C 24,0 C 2,3 km/h (1 Bft)
05.09.2014 10:15 21,8 C 76 % 1018,9 hPa 0,0 l/m 0,6 km/h (0 Bft) NW 315 17,4 C 24,4 C 0,0 km/h (0 Bft)
05.09.2014 10:20 21,7 C 76 % 1018,9 hPa 0,0 l/m 1,9 km/h (1 Bft) W-SW 247 17,3 C 23,6 C 3,5 km/h (1 Bft)
05.09.2014 10:25 21,6 C 73 % 1018,9 hPa 0,0 l/m 3,9 km/h (1 Bft) W-NW 292 16,5 C 23,1 C 7,9 km/h (2 Bft)
05.09.2014 10:30 21,7 C 69 % 1018,9 hPa 0,0 l/m 4,3 km/h (1 Bft) NW 315 15,8 C 23,1 C 8,7 km/h (2 Bft)
05.09.2014 10:35 22,3 C 66 % 1019,0 hPa 0,0 l/m 4,2 km/h (1 Bft) W-NW 292 15,6 C 23,6 C 2,3 km/h (1 Bft)
05.09.2014 10:40 22,3 C 59 % 1019,0 hPa 0,0 l/m 3,9 km/h (1 Bft) S-SW 202 13,9 C 24,0 C 3,7 km/h (1 Bft)
05.09.2014 10:45 22,4 C 58 % 1019,0 hPa 0,0 l/m 4,2 km/h (1 Bft) N-NW 337 13,7 C 24,5 C 11,7 km/h (2 Bft)
05.09.2014 10:50 22,1 C 56 % 1019,0 hPa 0,0 l/m 4,7 km/h (1 Bft) NW 315 12,9 C 24,2 C 9,5 km/h (2 Bft)
05.09.2014 10:55 22,1 C 56 % 1019,1 hPa 0,0 l/m 5,3 km/h (1 Bft) W-NW 292 12,9 C 24,1 C 13,0 km/h (3 Bft)
05.09.2014 11:00 22,0 C 56 % 1019,1 hPa 0,0 l/m 5,5 km/h (1 Bft) W-SW 247 12,8 C 23,7 C 8,0 km/h (2 Bft)
05.09.2014 11:05 22,6 C 56 % 1019,1 hPa 0,0 l/m 6,9 km/h (2 Bft) NW 315 13,4 C 23,5 C 18,2 km/h (3 Bft)
05.09.2014 11:10 22,7 C 55 % 1019,1 hPa 0,0 l/m 6,8 km/h (2 Bft) W-SW 247 13,2 C 24,1 C 8,7 km/h (2 Bft)
05.09.2014 11:15 23,7 C 54 % 1019,3 hPa 0,0 l/m 4,0 km/h (1 Bft) W 270 13,8 C 25,2 C 4,5 km/h (1 Bft)
05.09.2014 11:20 23,2 C 51 % 1019,3 hPa 0,0 l/m 4,5 km/h (1 Bft) W-NW 292 12,5 C 25,4 C 7,7 km/h (2 Bft)
05.09.2014 11:25 23,8 C 52 % 1019,3 hPa 0,0 l/m 4,8 km/h (1 Bft) NW 315 13,3 C 25,6 C 5,6 km/h (1 Bft)
05.09.2014 11:30 23,7 C 50 % 1019,3 hPa 0,0 l/m 5,6 km/h (1 Bft) NW 315 12,6 C 25,5 C 9,2 km/h (2 Bft)
05.09.2014 11:35 24,1 C 49 % 1019,4 hPa 0,0 l/m 6,3 km/h (2 Bft) NW 315 12,7 C 25,4 C 4,3 km/h (1 Bft)
05.09.2014 11:40 23,9 C 50 % 1019,4 hPa 0,0 l/m 7,9 km/h (2 Bft) W-SW 247 12,8 C 24,8 C 19,3 km/h (3 Bft)
05.09.2014 11:45 23,6 C 50 % 1019,4 hPa 0,0 l/m 9,2 km/h (2 Bft) W 270 12,6 C 24,1 C 18,3 km/h (3 Bft)
05.09.2014 11:50 23,6 C 49 % 1019,4 hPa 0,0 l/m 9,2 km/h (2 Bft) W 270 12,2 C 23,9 C 12,2 km/h (2 Bft)
05.09.2014 11:55 24,3 C 49 % 1019,5 hPa 0,0 l/m 9,0 km/h (2 Bft) W-NW 292 12,9 C 24,2 C 16,1 km/h (3 Bft)
05.09.2014 12:00 24,6 C 49 % 1019,5 hPa 0,0 l/m 8,5 km/h (2 Bft) NW 315 13,2 C 24,0 C 11,4 km/h (2 Bft)
05.09.2014 12:05 23,8 C 49 % 1019,5 hPa 0,0 l/m 8,7 km/h (2 Bft) W-SW 247 12,4 C 23,9 C 6,4 km/h (2 Bft)
05.09.2014 12:10 23,9 C 50 % 1019,5 hPa 0,0 l/m 8,5 km/h (2 Bft) N-NW 337 12,8 C 24,0 C 10,5 km/h (2 Bft)
05.09.2014 12:15 24,7 C 50 % 1019,4 hPa 0,0 l/m 8,0 km/h (2 Bft) N-NW 337 13,6 C 24,2 C 8,2 km/h (2 Bft)
05.09.2014 12:20 24,9 C 49 % 1019,4 hPa 0,0 l/m 6,9 km/h (2 Bft) W-NW 292 13,4 C 24,9 C 12,9 km/h (3 Bft)
05.09.2014 12:25 24,6 C 49 % 1019,4 hPa 0,0 l/m 6,4 km/h (2 Bft) W-NW 292 13,2 C 25,1 C 7,9 km/h (2 Bft)
05.09.2014 12:30 23,6 C 53 % 1019,4 hPa 0,0 l/m 6,1 km/h (2 Bft) W 270 13,4 C 24,9 C 4,8 km/h (1 Bft)
05.09.2014 12:35 22,2 C 57 % 1019,3 hPa 0,0 l/m 6,4 km/h (2 Bft) NW 315 13,3 C 24,1 C 12,4 km/h (3 Bft)
05.09.2014 12:40 21,5 C 59 % 1019,3 hPa 0,0 l/m 6,1 km/h (2 Bft) W-NW 292 13,1 C 23,0 C 6,3 km/h (2 Bft)
05.09.2014 12:45 24,1 C 55 % 1019,3 hPa 0,0 l/m 5,0 km/h (1 Bft) W 270 14,5 C 23,3 C 10,0 km/h (2 Bft)
05.09.2014 12:50 21,8 C 58 % 1019,3 hPa 0,0 l/m 5,5 km/h (1 Bft) NW 315 13,2 C 23,8 C 9,7 km/h (2 Bft)
05.09.2014 12:55 22,8 C 55 % 1019,3 hPa 0,0 l/m 6,1 km/h (2 Bft) W 270 13,3 C 23,1 C 13,2 km/h (3 Bft)
05.09.2014 13:00 22,8 C 57 % 1019,3 hPa 0,0 l/m 5,1 km/h (1 Bft) W 270 13,8 C 24,1 C 5,6 km/h (1 Bft)
05.09.2014 13:05 23,3 C 53 % 1019,3 hPa 0,0 l/m 5,1 km/h (1 Bft) NW 315 13,2 C 23,9 C 10,1 km/h (2 Bft)
05.09.2014 13:10 22,3 C 56 % 1019,3 hPa 0,0 l/m 5,6 km/h (1 Bft) W-NW 292 13,1 C 24,0 C 5,8 km/h (2 Bft)
05.09.2014 13:15 22,9 C 56 % 1019,1 hPa 0,0 l/m 6,6 km/h (2 Bft) W 270 13,6 C 23,5 C 12,4 km/h (3 Bft)
05.09.2014 13:20 24,1 C 49 % 1019,1 hPa 0,0 l/m 6,3 km/h (2 Bft) NW 315 12,7 C 24,0 C 9,2 km/h (2 Bft)
05.09.2014 13:25 24,3 C 50 % 1019,1 hPa 0,0 l/m 7,1 km/h (2 Bft) NW 315 13,2 C 24,3 C 7,4 km/h (2 Bft)
05.09.2014 13:30 23,7 C 51 % 1019,1 hPa 0,0 l/m 7,4 km/h (2 Bft) W-NW 292 13,0 C 24,3 C 11,4 km/h (2 Bft)
05.09.2014 13:35 21,4 C 56 % 1019,1 hPa 0,0 l/m 7,4 km/h (2 Bft) W 270 12,3 C 23,1 C 6,6 km/h (2 Bft)
05.09.2014 13:40 21,0 C 57 % 1019,1 hPa 0,0 l/m 6,8 km/h (2 Bft) NW 315 12,1 C 22,5 C 4,2 km/h (1 Bft)
05.09.2014 13:45 23,2 C 53 % 1019,1 hPa 0,0 l/m 5,1 km/h (1 Bft) NW 315 13,1 C 23,4 C 8,0 km/h (2 Bft)
05.09.2014 13:50 23,6 C 53 % 1019,1 hPa 0,0 l/m 5,5 km/h (1 Bft) NW 315 13,4 C 24,6 C 7,4 km/h (2 Bft)
05.09.2014 13:55 22,3 C 55 % 1019,1 hPa 0,0 l/m 6,4 km/h (2 Bft) W 270 12,8 C 24,5 C 5,8 km/h (2 Bft)
05.09.2014 14:00 21,4 C 54 % 1019,1 hPa 0,0 l/m 6,9 km/h (2 Bft) W 270 11,7 C 23,3 C 13,2 km/h (3 Bft)
05.09.2014 14:05 23,9 C 51 % 1019,1 hPa 0,0 l/m 6,3 km/h (2 Bft) S 180 13,1 C 24,3 C 5,0 km/h (1 Bft)
05.09.2014 14:10 24,4 C 50 % 1019,1 hPa 0,0 l/m 6,3 km/h (2 Bft) W 270 13,3 C 25,6 C 6,6 km/h (2 Bft)
05.09.2014 14:15 23,6 C 52 % 1018,9 hPa 0,0 l/m 5,8 km/h (2 Bft) W-NW 292 13,2 C 26,0 C 6,1 km/h (2 Bft)
05.09.2014 14:20 24,0 C 49 % 1018,9 hPa 0,0 l/m 5,8 km/h (2 Bft) W-NW 292 12,6 C 26,0 C 6,1 km/h (2 Bft)
05.09.2014 14:25 23,8 C 50 % 1018,9 hPa 0,0 l/m 5,0 km/h (1 Bft) W-SW 247 12,7 C 26,2 C 4,5 km/h (1 Bft)
05.09.2014 14:30 23,3 C 51 % 1018,9 hPa 0,0 l/m 4,7 km/h (1 Bft) W-NW 292 12,6 C 26,2 C 3,7 km/h (1 Bft)
05.09.2014 14:33 23,3 C 50 % 1018,9 hPa 0,0 l/m 4,7 km/h (1 Bft) W-NW 292 12,3 C 26,2 C 3,7 km/h (1 Bft)
05.09.2014 14:35 23,3 C 50 % 1018,9 hPa 0,0 l/m 4,7 km/h (1 Bft) W-NW 292 12,3 C 26,2 C 3,7 km/h (1 Bft)
05.09.2014 14:40 23,4 C 50 % 1018,9 hPa 0,0 l/m 5,6 km/h (1 Bft) W-NW 292 12,4 C 25,4 C 5,0 km/h (1 Bft)
05.09.2014 14:45 23,0 C 50 % 1018,9 hPa 0,0 l/m 5,6 km/h (1 Bft) W 270 12,0 C 24,7 C 7,4 km/h (2 Bft)
05.09.2014 14:50 22,5 C 51 % 1018,9 hPa 0,0 l/m 5,6 km/h (1 Bft) W-SW 247 11,8 C 24,2 C 7,2 km/h (2 Bft)
05.09.2014 14:55 23,1 C 52 % 1018,9 hPa 0,0 l/m 4,8 km/h (1 Bft) W-NW 292 12,7 C 24,2 C 3,2 km/h (1 Bft)
05.09.2014 15:00 23,3 C 51 % 1018,9 hPa 0,0 l/m 4,0 km/h (1 Bft) W-NW 292 12,6 C 24,5 C 3,1 km/h (1 Bft)
05.09.2014 15:05 25,2 C 47 % 1018,9 hPa 0,0 l/m 5,3 km/h (1 Bft) NW 315 13,1 C 25,7 C 8,5 km/h (2 Bft)
05.09.2014 15:10 24,8 C 45 % 1018,9 hPa 0,0 l/m 6,1 km/h (2 Bft) W-NW 292 12,0 C 26,4 C 8,9 km/h (2 Bft)
05.09.2014 15:15 24,5 C 44 % 1018,7 hPa 0,0 l/m 5,6 km/h (1 Bft) SW 225 11,4 C 26,2 C 4,2 km/h (1 Bft)
05.09.2014 15:20 24,6 C 45 % 1018,7 hPa 0,0 l/m 6,0 km/h (2 Bft) W 270 11,9 C 26,7 C 6,3 km/h (2 Bft)
05.09.2014 15:25 24,0 C 45 % 1018,7 hPa 0,0 l/m 6,1 km/h (2 Bft) NW 315 11,3 C 26,5 C 8,9 km/h (2 Bft)
05.09.2014 15:30 23,1 C 49 % 1018,7 hPa 0,0 l/m 5,6 km/h (1 Bft) W 270 11,8 C 25,6 C 3,2 km/h (1 Bft)
05.09.2014 15:35 22,5 C 51 % 1018,7 hPa 0,0 l/m 5,0 km/h (1 Bft) W 270 11,8 C 24,6 C 3,9 km/h (1 Bft)
05.09.2014 15:40 22,5 C 53 % 1018,7 hPa 0,0 l/m 4,3 km/h (1 Bft) W 270 12,4 C 24,0 C 5,1 km/h (1 Bft)
05.09.2014 15:45 22,2 C 55 % 1018,7 hPa 0,0 l/m 4,5 km/h (1 Bft) NW 315 12,7 C 23,6 C 4,5 km/h (1 Bft)
05.09.2014 15:50 22,1 C 55 % 1018,7 hPa 0,0 l/m 4,5 km/h (1 Bft) W-NW 292 12,6 C 23,2 C 4,5 km/h (1 Bft)
05.09.2014 15:55 21,6 C 57 % 1018,7 hPa 0,0 l/m 4,0 km/h (1 Bft) W-SW 247 12,7 C 22,9 C 3,2 km/h (1 Bft)
05.09.2014 16:00 21,6 C 58 % 1018,7 hPa 0,0 l/m 3,9 km/h (1 Bft) W-NW 292 13,0 C 22,7 C 3,5 km/h (1 Bft)
05.09.2014 16:05 21,5 C 58 % 1018,7 hPa 0,0 l/m 4,2 km/h (1 Bft) W 270 12,9 C 22,5 C 3,5 km/h (1 Bft)
05.09.2014 16:10 21,5 C 58 % 1018,7 hPa 0,0 l/m 4,3 km/h (1 Bft) NW 315 12,9 C 22,3 C 4,0 km/h (1 Bft)
05.09.2014 16:15 21,5 C 58 % 1018,4 hPa 0,0 l/m 3,7 km/h (1 Bft) NW 315 12,9 C 22,3 C 3,4 km/h (1 Bft)
05.09.2014 16:20 21,6 C 58 % 1018,4 hPa 0,0 l/m 2,4 km/h (1 Bft) W 270 13,0 C 22,5 C 4,2 km/h (1 Bft)
05.09.2014 16:25 21,8 C 58 % 1018,4 hPa 0,0 l/m 1,6 km/h (1 Bft) N-NO 22 13,2 C 22,7 C 1,9 km/h (1 Bft)
05.09.2014 16:30 21,8 C 59 % 1018,4 hPa 0,0 l/m 1,8 km/h (1 Bft) NW 315 13,4 C 22,7 C 3,2 km/h (1 Bft)
05.09.2014 16:35 21,7 C 59 % 1018,4 hPa 0,0 l/m 2,6 km/h (1 Bft) W-SW 247 13,3 C 22,9 C 4,0 km/h (1 Bft)
05.09.2014 16:40 21,7 C 59 % 1018,4 hPa 0,0 l/m 2,4 km/h (1 Bft) W-SW 247 13,3 C 22,8 C 1,8 km/h (1 Bft)
05.09.2014 16:45 21,9 C 59 % 1018,4 hPa 0,0 l/m 1,8 km/h (1 Bft) W-SW 247 13,5 C 23,2 C 0,0 km/h (0 Bft)
05.09.2014 16:50 22,0 C 59 % 1018,4 hPa 0,0 l/m 1,1 km/h (1 Bft) W-SW 247 13,6 C 23,4 C 1,9 km/h (1 Bft)
05.09.2014 16:55 22,1 C 58 % 1018,1 hPa 0,0 l/m 1,3 km/h (1 Bft) W-SW 247 13,4 C 24,0 C 0,0 km/h (0 Bft)
05.09.2014 17:00 22,1 C 58 % 1018,1 hPa 0,0 l/m 1,3 km/h (1 Bft) S-SO 157 13,4 C 24,8 C 1,6 km/h (1 Bft)
05.09.2014 17:05 22,1 C 58 % 1018,1 hPa 0,0 l/m 1,1 km/h (1 Bft) W-NW 292 13,4 C 25,5 C 0,0 km/h (0 Bft)
05.09.2014 17:10 21,9 C 58 % 1018,1 hPa 0,0 l/m 1,1 km/h (1 Bft) W-NW 292 13,3 C 25,5 C 0,0 km/h (0 Bft)
05.09.2014 17:15 21,9 C 59 % 1018,2 hPa 0,0 l/m 1,1 km/h (1 Bft) W-NW 292 13,5 C 25,5 C 0,0 km/h (0 Bft)
05.09.2014 17:20 21,8 C 58 % 1018,2 hPa 0,0 l/m 1,1 km/h (1 Bft) W-NW 292 13,2 C 25,5 C 0,0 km/h (0 Bft)
05.09.2014 17:25 21,6 C 59 % 1018,2 hPa 0,0 l/m 0,0 km/h (0 Bft) W-NW 292 13,2 C 25,5 C 0,0 km/h (0 Bft)
05.09.2014 17:30 21,3 C 58 % 1018,2 hPa 0,0 l/m 0,0 km/h (0 Bft) W-NW 292 12,7 C 25,5 C 0,0 km/h (0 Bft)
05.09.2014 17:35 21,1 C 59 % 1018,1 hPa 0,0 l/m 0,0 km/h (0 Bft) W-NW 292 12,8 C 25,5 C 0,0 km/h (0 Bft)
05.09.2014 17:40 20,9 C 59 % 1018,1 hPa 0,0 l/m 0,0 km/h (0 Bft) W-NW 292 12,6 C 25,5 C 0,0 km/h (0 Bft)
05.09.2014 17:45 20,8 C 59 % 1018,1 hPa 0,0 l/m 0,0 km/h (0 Bft) W-NW 292 12,5 C 25,5 C 0,0 km/h (0 Bft)
05.09.2014 17:50 20,7 C 60 % 1018,1 hPa 0,0 l/m 0,0 km/h (0 Bft) W-NW 292 12,7 C 25,5 C 0,0 km/h (0 Bft)
05.09.2014 17:55 20,5 C 61 % 1018,0 hPa 0,0 l/m 0,0 km/h (0 Bft) W-NW 292 12,7 C 25,5 C 0,0 km/h (0 Bft)
05.09.2014 18:00 20,4 C 62 % 1018,0 hPa 0,0 l/m 0,0 km/h (0 Bft) W-NW 292 12,9 C 25,5 C 0,0 km/h (0 Bft)
05.09.2014 18:05 20,1 C 64 % 1018,0 hPa 0,0 l/m 0,0 km/h (0 Bft) W-NW 292 13,1 C 25,5 C 0,0 km/h (0 Bft)
05.09.2014 18:10 20,3 C 65 % 1018,0 hPa 0,0 l/m 0,0 km/h (0 Bft) W-NW 292 13,5 C 25,5 C 0,0 km/h (0 Bft)
05.09.2014 18:15 20,4 C 65 % 1018,1 hPa 0,0 l/m 0,0 km/h (0 Bft) W-NW 292 13,6 C 25,5 C 0,0 km/h (0 Bft)
05.09.2014 18:20 20,6 C 64 % 1018,1 hPa 0,0 l/m 0,0 km/h (0 Bft) W-NW 292 13,5 C 25,5 C 0,0 km/h (0 Bft)
05.09.2014 18:25 20,4 C 65 % 1018,1 hPa 0,0 l/m 0,0 km/h (0 Bft) W-NW 292 13,6 C 25,5 C 0,0 km/h (0 Bft)
05.09.2014 18:30 20,2 C 66 % 1018,1 hPa 0,0 l/m 0,0 km/h (0 Bft) W-NW 292 13,6 C 25,5 C 0,0 km/h (0 Bft)
05.09.2014 18:35 20,0 C 66 % 1018,0 hPa 0,0 l/m 0,0 km/h (0 Bft) W-NW 292 13,4 C 25,5 C 0,0 km/h (0 Bft)
05.09.2014 18:40 19,9 C 67 % 1018,0 hPa 0,0 l/m 0,0 km/h (0 Bft) W-NW 292 13,6 C 25,5 C 0,0 km/h (0 Bft)
05.09.2014 18:45 19,5 C 68 % 1018,0 hPa 0,0 l/m 0,0 km/h (0 Bft) W-NW 292 13,4 C 25,5 C 0,0 km/h (0 Bft)
05.09.2014 18:50 19,4 C 68 % 1018,0 hPa 0,0 l/m 0,0 km/h (0 Bft) W-NW 292 13,3 C 25,5 C 0,0 km/h (0 Bft)
05.09.2014 18:55 19,0 C 69 % 1017,9 hPa 0,0 l/m 0,0 km/h (0 Bft) W-NW 292 13,2 C 25,5 C 0,0 km/h (0 Bft)
05.09.2014 19:00 18,8 C 72 % 1017,9 hPa 0,0 l/m 0,0 km/h (0 Bft) W-NW 292 13,6 C 25,5 C 0,0 km/h (0 Bft)
05.09.2014 19:05 18,6 C 73 % 1017,9 hPa 0,0 l/m 0,0 km/h (0 Bft) W-NW 292 13,7 C 25,5 C 0,0 km/h (0 Bft)
05.09.2014 19:10 18,3 C 73 % 1017,9 hPa 0,0 l/m 0,0 km/h (0 Bft) W-NW 292 13,4 C 25,5 C 0,0 km/h (0 Bft)
05.09.2014 19:15 17,9 C 75 % 1017,8 hPa 0,0 l/m 0,0 km/h (0 Bft) W-NW 292 13,4 C 25,5 C 0,0 km/h (0 Bft)
05.09.2014 19:20 17,7 C 75 % 1017,8 hPa 0,0 l/m 0,0 km/h (0 Bft) W-NW 292 13,2 C 25,5 C 0,0 km/h (0 Bft)
05.09.2014 19:25 17,5 C 76 % 1017,8 hPa 0,0 l/m 0,0 km/h (0 Bft) W-NW 292 13,2 C 25,5 C 0,0 km/h (0 Bft)
05.09.2014 19:30 17,3 C 78 % 1017,8 hPa 0,0 l/m 0,0 km/h (0 Bft) W-NW 292 13,4 C 25,5 C 0,0 km/h (0 Bft)
05.09.2014 19:34 17,1 C 78 % 1017,8 hPa 0,0 l/m 0,0 km/h (0 Bft) W-NW 292 13,2 C 25,5 C 0,0 km/h (0 Bft)
05.09.2014 19:35 17,1 C 78 % 1017,8 hPa 0,0 l/m 0,0 km/h (0 Bft) W-NW 292 13,2 C 25,5 C 0,0 km/h (0 Bft)
05.09.2014 19:40 17,0 C 78 % 1017,8 hPa 0,0 l/m 0,0 km/h (0 Bft) W-NW 292 13,1 C 25,5 C 0,0 km/h (0 Bft)
05.09.2014 19:45 17,0 C 79 % 1017,8 hPa 0,0 l/m 0,0 km/h (0 Bft) W-NW 292 13,3 C 25,5 C 0,0 km/h (0 Bft)
05.09.2014 19:50 17,0 C 79 % 1017,8 hPa 0,0 l/m 0,0 km/h (0 Bft) W-NW 292 13,3 C 25,5 C 0,0 km/h (0 Bft)
05.09.2014 19:55 17,0 C 79 % 1017,4 hPa 0,0 l/m 0,0 km/h (0 Bft) W-NW 292 13,3 C 25,5 C 0,0 km/h (0 Bft)
05.09.2014 20:00 17,0 C 79 % 1017,4 hPa 0,0 l/m 0,0 km/h (0 Bft) W-NW 292 13,3 C 25,5 C 0,0 km/h (0 Bft)
05.09.2014 20:05 16,8 C 80 % 1017,4 hPa 0,0 l/m 0,0 km/h (0 Bft) W-NW 292 13,3 C 25,5 C 0,0 km/h (0 Bft)
05.09.2014 20:10 16,6 C 80 % 1017,4 hPa 0,0 l/m 0,0 km/h (0 Bft) W-NW 292 13,1 C 25,5 C 0,0 km/h (0 Bft)
05.09.2014 20:15 16,3 C 80 % 1017,4 hPa 0,0 l/m 0,0 km/h (0 Bft) W-NW 292 12,8 C 25,5 C 0,0 km/h (0 Bft)
05.09.2014 20:20 16,2 C 81 % 1017,4 hPa 0,0 l/m 0,0 km/h (0 Bft) W-NW 292 12,9 C 25,5 C 0,0 km/h (0 Bft)
05.09.2014 20:25 16,0 C 82 % 1017,4 hPa 0,0 l/m 0,0 km/h (0 Bft) W-NW 292 12,9 C 25,5 C 0,0 km/h (0 Bft)
05.09.2014 20:30 16,0 C 82 % 1017,4 hPa 0,0 l/m 0,0 km/h (0 Bft) W-NW 292 12,9 C 25,5 C 0,0 km/h (0 Bft)
05.09.2014 20:35 16,0 C 83 % 1017,2 hPa 0,0 l/m 0,0 km/h (0 Bft) W-NW 292 13,1 C 25,5 C 0,0 km/h (0 Bft)
05.09.2014 20:40 15,9 C 84 % 1017,2 hPa 0,0 l/m 0,0 km/h (0 Bft) W-NW 292 13,2 C 25,5 C 0,0 km/h (0 Bft)
05.09.2014 20:45 15,7 C 84 % 1017,2 hPa 0,0 l/m 0,0 km/h (0 Bft) W-NW 292 13,0 C 25,5 C 0,0 km/h (0 Bft)
05.09.2014 20:50 15,5 C 84 % 1017,2 hPa 0,0 l/m 0,0 km/h (0 Bft) W-NW 292 12,8 C 25,5 C 0,0 km/h (0 Bft)
05.09.2014 20:55 15,3 C 84 % 1017,1 hPa 0,0 l/m 0,0 km/h (0 Bft) W-NW 292 12,6 C 25,5 C 0,0 km/h (0 Bft)
05.09.2014 21:00 15,3 C 85 % 1017,1 hPa 0,0 l/m 0,0 km/h (0 Bft) W-NW 292 12,8 C 25,5 C 0,0 km/h (0 Bft)
05.09.2014 21:05 15,2 C 85 % 1017,1 hPa 0,0 l/m 0,0 km/h (0 Bft) W-NW 292 12,7 C 25,5 C 0,0 km/h (0 Bft)
05.09.2014 21:10 15,2 C 85 % 1017,1 hPa 0,0 l/m 0,0 km/h (0 Bft) W-NW 292 12,7 C 25,5 C 0,0 km/h (0 Bft)
05.09.2014 21:15 15,1 C 85 % 1017,1 hPa 0,0 l/m 0,0 km/h (0 Bft) W-NW 292 12,6 C 25,5 C 0,0 km/h (0 Bft)
05.09.2014 21:20 15,1 C 85 % 1017,1 hPa 0,0 l/m 0,0 km/h (0 Bft) W-NW 292 12,6 C 25,5 C 0,0 km/h (0 Bft)
05.09.2014 21:25 15,1 C 86 % 1017,1 hPa 0,0 l/m 0,0 km/h (0 Bft) W-NW 292 12,8 C 25,5 C 0,0 km/h (0 Bft)
05.09.2014 21:30 15,1 C 86 % 1017,1 hPa 0,0 l/m 0,0 km/h (0 Bft) W-NW 292 12,8 C 25,5 C 0,0 km/h (0 Bft)
05.09.2014 21:35 15,5 C 86 % 1017,1 hPa 0,0 l/m 0,0 km/h (0 Bft) W-NW 292 13,2 C 25,5 C 0,0 km/h (0 Bft)
05.09.2014 21:40 15,4 C 86 % 1017,1 hPa 0,0 l/m 0,0 km/h (0 Bft) W-NW 292 13,1 C 25,5 C 0,0 km/h (0 Bft)
05.09.2014 21:45 15,3 C 86 % 1017,1 hPa 0,0 l/m 0,0 km/h (0 Bft) W-NW 292 13,0 C 25,5 C 0,0 km/h (0 Bft)
05.09.2014 21:50 15,3 C 86 % 1017,1 hPa 0,0 l/m 0,0 km/h (0 Bft) W-NW 292 13,0 C 25,5 C 0,0 km/h (0 Bft)
05.09.2014 21:55 15,3 C 86 % 1017,7 hPa 0,0 l/m 0,0 km/h (0 Bft) W-NW 292 13,0 C 25,5 C 0,0 km/h (0 Bft)
05.09.2014 22:00 15,2 C 86 % 1017,7 hPa 0,0 l/m 0,0 km/h (0 Bft) W-NW 292 12,9 C 25,5 C 0,0 km/h (0 Bft)
05.09.2014 22:05 15,2 C 86 % 1017,7 hPa 0,0 l/m 0,0 km/h (0 Bft) W-NW 292 12,9 C 25,5 C 0,0 km/h (0 Bft)
05.09.2014 22:10 15,2 C 86 % 1017,7 hPa 0,0 l/m 0,0 km/h (0 Bft) W-NW 292 12,9 C 25,5 C 0,0 km/h (0 Bft)
05.09.2014 22:15 15,1 C 86 % 1017,8 hPa 0,0 l/m 0,0 km/h (0 Bft) W-NW 292 12,8 C 25,5 C 0,0 km/h (0 Bft)
05.09.2014 22:20 15,0 C 86 % 1017,8 hPa 0,0 l/m 0,0 km/h (0 Bft) W-NW 292 12,7 C 25,5 C 0,0 km/h (0 Bft)
05.09.2014 22:25 14,9 C 87 % 1017,8 hPa 0,0 l/m 0,0 km/h (0 Bft) W-NW 292 12,8 C 25,5 C 0,0 km/h (0 Bft)
05.09.2014 22:30 15,0 C 87 % 1017,8 hPa 0,0 l/m 0,0 km/h (0 Bft) W-NW 292 12,9 C 25,5 C 0,0 km/h (0 Bft)
05.09.2014 22:35 15,1 C 87 % 1017,8 hPa 0,0 l/m 0,0 km/h (0 Bft) W-NW 292 13,0 C 25,5 C 0,0 km/h (0 Bft)
05.09.2014 22:40 15,0 C 87 % 1017,8 hPa 0,0 l/m 0,0 km/h (0 Bft) W-NW 292 12,9 C 25,5 C 0,0 km/h (0 Bft)
05.09.2014 22:45 15,0 C 87 % 1017,8 hPa 0,0 l/m 0,0 km/h (0 Bft) W-NW 292 12,9 C 25,5 C 0,0 km/h (0 Bft)
05.09.2014 22:50 14,8 C 87 % 1017,8 hPa 0,0 l/m 0,0 km/h (0 Bft) W-NW 292 12,7 C 25,5 C 0,0 km/h (0 Bft)
05.09.2014 22:55 15,0 C 87 % 1018,1 hPa 0,0 l/m 0,0 km/h (0 Bft) W-NW 292 12,9 C 25,5 C 0,0 km/h (0 Bft)
05.09.2014 23:00 14,9 C 87 % 1018,1 hPa 0,0 l/m 0,0 km/h (0 Bft) W-NW 292 12,8 C 25,5 C 0,0 km/h (0 Bft)
05.09.2014 23:05 14,9 C 87 % 1018,1 hPa 0,0 l/m 0,0 km/h (0 Bft) W-NW 292 12,8 C 25,5 C 0,0 km/h (0 Bft)
05.09.2014 23:10 14,7 C 87 % 1018,1 hPa 0,0 l/m 0,0 km/h (0 Bft) W-NW 292 12,6 C 25,5 C 0,0 km/h (0 Bft)
05.09.2014 23:15 14,6 C 87 % 1017,9 hPa 0,0 l/m 0,0 km/h (0 Bft) W-NW 292 12,5 C 25,5 C 0,0 km/h (0 Bft)
05.09.2014 23:20 14,4 C 87 % 1017,9 hPa 0,0 l/m 0,0 km/h (0 Bft) W-NW 292 12,3 C 25,5 C 0,0 km/h (0 Bft)
05.09.2014 23:25 14,3 C 87 % 1017,9 hPa 0,0 l/m 0,0 km/h (0 Bft) W-NW 292 12,2 C 25,5 C 0,0 km/h (0 Bft)
05.09.2014 23:30 14,2 C 87 % 1017,9 hPa 0,0 l/m 0,0 km/h (0 Bft) W-NW 292 12,1 C 25,5 C 0,0 km/h (0 Bft)
05.09.2014 23:35 14,2 C 87 % 1017,8 hPa 0,0 l/m 0,0 km/h (0 Bft) W-NW 292 12,1 C 25,5 C 0,0 km/h (0 Bft)
05.09.2014 23:40 14,1 C 87 % 1017,8 hPa 0,0 l/m 0,0 km/h (0 Bft) W-NW 292 12,0 C 25,5 C 0,0 km/h (0 Bft)
05.09.2014 23:45 14,0 C 87 % 1017,8 hPa 0,0 l/m 0,0 km/h (0 Bft) W-NW 292 11,9 C 25,5 C 0,0 km/h (0 Bft)
05.09.2014 23:50 13,9 C 88 % 1017,8 hPa 0,0 l/m 0,0 km/h (0 Bft) W-NW 292 11,9 C 25,5 C 0,0 km/h (0 Bft)
05.09.2014 23:55 13,9 C 88 % 1017,8 hPa 0,0 l/m 0,0 km/h (0 Bft) W-NW 292 11,9 C 25,5 C 0,0 km/h (0 Bft)
_ Min-Zeit 04:45 15:15 21:50 - 23:55 - - 04:45 04:50 23:55
Minimum _ 9,5 C 44 % 1017,1 hPa - 0,0 km/h (0 Bft) - - 8,4 C 9,4 C 0,0 km/h (0 Bft)
_ Max-Zeit 15:05 08:30 12:10 23:55 11:50 - - 10:10 15:20 11:40
Maximum _ 25,2 C 95 % 1019,5 hPa 0,0 l/m 9,2 km/h
W (2 Bft)
- - 17,8 C 26,7 C 19,3 km/h
W-SW (3 Bft)
Durchschnitt _ 16,5 C 77 % 1018,1 hPa #0,0 l/m 1,6 km/h (1 Bft) NW - 12,0 C 19,3 C 2,2 km/h (1 Bft)